sensor_id;sensor_type;location;lat;lon;timestamp;P1;durP1;ratioP1;P2;durP2;ratioP2
43311;SDS011;30041;48.300;16.352;2023-08-31T00:02:18;1.33;;;1.02;;
43311;SDS011;30041;48.300;16.352;2023-08-31T00:04:43;1.15;;;0.77;;
43311;SDS011;30041;48.300;16.352;2023-08-31T00:07:09;2.22;;;1.08;;
43311;SDS011;30041;48.300;16.352;2023-08-31T00:09:34;1.75;;;1.10;;
43311;SDS011;30041;48.300;16.352;2023-08-31T00:12:03;1.27;;;0.90;;
43311;SDS011;30041;48.300;16.352;2023-08-31T00:14:28;2.85;;;1.00;;
43311;SDS011;30041;48.300;16.352;2023-08-31T00:16:54;1.38;;;1.00;;
43311;SDS011;30041;48.300;16.352;2023-08-31T00:19:19;2.83;;;0.90;;
43311;SDS011;30041;48.300;16.352;2023-08-31T00:21:45;1.05;;;0.80;;
43311;SDS011;30041;48.300;16.352;2023-08-31T00:24:13;2.13;;;1.00;;
43311;SDS011;30041;48.300;16.352;2023-08-31T00:26:39;1.30;;;0.85;;
43311;SDS011;30041;48.300;16.352;2023-08-31T00:29:04;1.20;;;0.90;;
43311;SDS011;30041;48.300;16.352;2023-08-31T00:31:30;1.15;;;0.85;;
43311;SDS011;30041;48.300;16.352;2023-08-31T00:33:55;1.27;;;1.00;;
43311;SDS011;30041;48.300;16.352;2023-08-31T00:36:21;0.93;;;0.70;;
43311;SDS011;30041;48.300;16.352;2023-08-31T00:38:46;1.48;;;0.80;;
43311;SDS011;30041;48.300;16.352;2023-08-31T00:41:12;1.63;;;1.10;;
43311;SDS011;30041;48.300;16.352;2023-08-31T00:43:37;1.08;;;0.90;;
43311;SDS011;30041;48.300;16.352;2023-08-31T00:46:02;1.25;;;0.80;;
43311;SDS011;30041;48.300;16.352;2023-08-31T00:48:28;1.73;;;0.90;;
43311;SDS011;30041;48.300;16.352;2023-08-31T00:50:53;1.45;;;0.90;;
43311;SDS011;30041;48.300;16.352;2023-08-31T00:53:19;1.88;;;1.00;;
43311;SDS011;30041;48.300;16.352;2023-08-31T00:55:46;1.00;;;0.85;;
43311;SDS011;30041;48.300;16.352;2023-08-31T00:58:12;1.55;;;1.00;;
43311;SDS011;30041;48.300;16.352;2023-08-31T01:06:27;1.00;;;0.80;;
43311;SDS011;30041;48.300;16.352;2023-08-31T01:11:37;1.10;;;0.80;;
43311;SDS011;30041;48.300;16.352;2023-08-31T01:14:11;1.57;;;1.00;;
43311;SDS011;30041;48.300;16.352;2023-08-31T01:16:42;0.98;;;0.70;;
43311;SDS011;30041;48.300;16.352;2023-08-31T01:19:21;3.42;;;1.00;;
43311;SDS011;30041;48.300;16.352;2023-08-31T01:22:05;1.10;;;0.88;;
43311;SDS011;30041;48.300;16.352;2023-08-31T01:24:37;1.92;;;1.10;;
43311;SDS011;30041;48.300;16.352;2023-08-31T01:27:04;1.58;;;0.98;;
43311;SDS011;30041;48.300;16.352;2023-08-31T01:29:30;0.90;;;0.80;;
43311;SDS011;30041;48.300;16.352;2023-08-31T01:31:59;1.10;;;0.80;;
43311;SDS011;30041;48.300;16.352;2023-08-31T01:34:24;1.20;;;0.77;;
43311;SDS011;30041;48.300;16.352;2023-08-31T01:36:52;0.95;;;0.80;;
43311;SDS011;30041;48.300;16.352;2023-08-31T01:39:26;1.63;;;0.90;;
43311;SDS011;30041;48.300;16.352;2023-08-31T01:42:00;1.27;;;1.00;;
43311;SDS011;30041;48.300;16.352;2023-08-31T01:44:30;1.35;;;0.90;;
43311;SDS011;30041;48.300;16.352;2023-08-31T01:47:02;1.13;;;1.00;;
43311;SDS011;30041;48.300;16.352;2023-08-31T01:49:34;1.27;;;0.98;;
43311;SDS011;30041;48.300;16.352;2023-08-31T01:52:02;1.90;;;1.00;;
43311;SDS011;30041;48.300;16.352;2023-08-31T01:54:28;1.45;;;0.93;;
43311;SDS011;30041;48.300;16.352;2023-08-31T01:56:54;1.63;;;1.00;;
43311;SDS011;30041;48.300;16.352;2023-08-31T01:59:19;1.95;;;1.00;;
43311;SDS011;30041;48.300;16.352;2023-08-31T02:01:45;1.75;;;0.90;;
43311;SDS011;30041;48.300;16.352;2023-08-31T02:04:10;1.45;;;0.80;;
43311;SDS011;30041;48.300;16.352;2023-08-31T02:06:36;1.58;;;1.00;;
43311;SDS011;30041;48.300;16.352;2023-08-31T02:09:01;1.40;;;1.08;;
43311;SDS011;30041;48.300;16.352;2023-08-31T02:11:26;1.10;;;0.90;;
43311;SDS011;30041;48.300;16.352;2023-08-31T02:13:52;1.52;;;0.80;;
43311;SDS011;30041;48.300;16.352;2023-08-31T02:16:17;1.92;;;0.90;;
43311;SDS011;30041;48.300;16.352;2023-08-31T02:18:43;1.67;;;1.00;;
43311;SDS011;30041;48.300;16.352;2023-08-31T02:21:08;1.38;;;0.88;;
43311;SDS011;30041;48.300;16.352;2023-08-31T02:23:34;1.92;;;0.98;;
43311;SDS011;30041;48.300;16.352;2023-08-31T02:25:59;1.15;;;0.90;;
43311;SDS011;30041;48.300;16.352;2023-08-31T02:28:24;2.45;;;1.15;;
43311;SDS011;30041;48.300;16.352;2023-08-31T02:30:57;2.17;;;1.10;;
43311;SDS011;30041;48.300;16.352;2023-08-31T02:33:23;1.33;;;0.93;;
43311;SDS011;30041;48.300;16.352;2023-08-31T02:35:49;3.45;;;1.17;;
43311;SDS011;30041;48.300;16.352;2023-08-31T02:38:15;1.25;;;0.90;;
43311;SDS011;30041;48.300;16.352;2023-08-31T02:40:40;1.15;;;0.90;;
43311;SDS011;30041;48.300;16.352;2023-08-31T02:43:06;1.20;;;0.90;;
43311;SDS011;30041;48.300;16.352;2023-08-31T02:45:31;1.38;;;0.88;;
43311;SDS011;30041;48.300;16.352;2023-08-31T02:47:57;1.90;;;0.90;;
43311;SDS011;30041;48.300;16.352;2023-08-31T02:50:22;2.20;;;1.10;;
43311;SDS011;30041;48.300;16.352;2023-08-31T02:52:47;2.65;;;1.20;;
43311;SDS011;30041;48.300;16.352;2023-08-31T02:55:13;1.42;;;0.98;;
43311;SDS011;30041;48.300;16.352;2023-08-31T02:57:38;2.67;;;1.00;;
43311;SDS011;30041;48.300;16.352;2023-08-31T03:00:04;1.67;;;1.00;;
43311;SDS011;30041;48.300;16.352;2023-08-31T03:02:30;1.90;;;1.00;;
43311;SDS011;30041;48.300;16.352;2023-08-31T03:04:56;3.47;;;1.20;;
43311;SDS011;30041;48.300;16.352;2023-08-31T03:07:21;2.75;;;1.17;;
43311;SDS011;30041;48.300;16.352;2023-08-31T03:09:50;1.67;;;1.08;;
43311;SDS011;30041;48.300;16.352;2023-08-31T03:12:15;2.95;;;1.30;;
43311;SDS011;30041;48.300;16.352;2023-08-31T03:14:41;3.92;;;1.27;;
43311;SDS011;30041;48.300;16.352;2023-08-31T03:17:06;2.78;;;1.02;;
43311;SDS011;30041;48.300;16.352;2023-08-31T03:19:32;3.17;;;1.17;;
43311;SDS011;30041;48.300;16.352;2023-08-31T03:21:57;1.73;;;1.10;;
43311;SDS011;30041;48.300;16.352;2023-08-31T03:24:22;2.17;;;1.27;;
43311;SDS011;30041;48.300;16.352;2023-08-31T03:26:48;1.95;;;1.20;;
43311;SDS011;30041;48.300;16.352;2023-08-31T03:29:14;1.85;;;1.00;;
43311;SDS011;30041;48.300;16.352;2023-08-31T03:31:39;3.30;;;1.35;;
43311;SDS011;30041;48.300;16.352;2023-08-31T03:34:04;3.15;;;1.30;;
43311;SDS011;30041;48.300;16.352;2023-08-31T03:36:30;2.45;;;1.33;;
43311;SDS011;30041;48.300;16.352;2023-08-31T03:38:56;4.05;;;1.20;;
43311;SDS011;30041;48.300;16.352;2023-08-31T03:41:21;5.20;;;1.20;;
43311;SDS011;30041;48.300;16.352;2023-08-31T03:43:49;4.20;;;1.10;;
43311;SDS011;30041;48.300;16.352;2023-08-31T03:46:14;2.50;;;1.13;;
43311;SDS011;30041;48.300;16.352;2023-08-31T03:48:40;2.47;;;1.05;;
43311;SDS011;30041;48.300;16.352;2023-08-31T03:51:05;1.92;;;1.15;;
43311;SDS011;30041;48.300;16.352;2023-08-31T03:53:30;3.15;;;1.10;;
43311;SDS011;30041;48.300;16.352;2023-08-31T03:55:56;3.33;;;1.27;;
43311;SDS011;30041;48.300;16.352;2023-08-31T03:58:21;1.80;;;0.93;;
43311;SDS011;30041;48.300;16.352;2023-08-31T04:00:50;2.30;;;1.17;;
43311;SDS011;30041;48.300;16.352;2023-08-31T04:03:16;2.55;;;1.35;;
43311;SDS011;30041;48.300;16.352;2023-08-31T04:05:41;1.88;;;1.08;;
43311;SDS011;30041;48.300;16.352;2023-08-31T04:08:07;3.83;;;1.20;;
43311;SDS011;30041;48.300;16.352;2023-08-31T04:10:32;4.20;;;1.27;;
43311;SDS011;30041;48.300;16.352;2023-08-31T04:12:58;5.03;;;1.30;;
43311;SDS011;30041;48.300;16.352;2023-08-31T04:15:24;4.28;;;1.52;;
43311;SDS011;30041;48.300;16.352;2023-08-31T04:17:49;3.53;;;1.20;;
43311;SDS011;30041;48.300;16.352;2023-08-31T04:20:15;2.75;;;1.20;;
43311;SDS011;30041;48.300;16.352;2023-08-31T04:22:40;4.10;;;1.20;;
43311;SDS011;30041;48.300;16.352;2023-08-31T04:25:06;5.65;;;1.65;;
43311;SDS011;30041;48.300;16.352;2023-08-31T04:27:32;7.13;;;1.23;;
43311;SDS011;30041;48.300;16.352;2023-08-31T04:30:00;5.50;;;1.40;;
43311;SDS011;30041;48.300;16.352;2023-08-31T04:32:26;5.00;;;1.65;;
43311;SDS011;30041;48.300;16.352;2023-08-31T04:34:52;4.03;;;1.30;;
43311;SDS011;30041;48.300;16.352;2023-08-31T04:37:18;6.95;;;1.40;;
43311;SDS011;30041;48.300;16.352;2023-08-31T04:39:44;5.50;;;1.48;;
43311;SDS011;30041;48.300;16.352;2023-08-31T04:42:09;3.42;;;1.38;;
43311;SDS011;30041;48.300;16.352;2023-08-31T04:44:35;4.10;;;1.58;;
43311;SDS011;30041;48.300;16.352;2023-08-31T04:47:00;5.07;;;1.50;;
43311;SDS011;30041;48.300;16.352;2023-08-31T04:49:26;4.07;;;1.55;;
43311;SDS011;30041;48.300;16.352;2023-08-31T04:51:52;2.67;;;1.48;;
43311;SDS011;30041;48.300;16.352;2023-08-31T04:54:17;4.20;;;1.35;;
43311;SDS011;30041;48.300;16.352;2023-08-31T04:56:43;3.22;;;1.17;;
43311;SDS011;30041;48.300;16.352;2023-08-31T04:59:11;2.92;;;1.58;;
43311;SDS011;30041;48.300;16.352;2023-08-31T05:01:36;3.33;;;1.23;;
43311;SDS011;30041;48.300;16.352;2023-08-31T05:04:02;14.25;;;1.70;;
43311;SDS011;30041;48.300;16.352;2023-08-31T05:06:28;25.98;;;2.50;;
43311;SDS011;30041;48.300;16.352;2023-08-31T05:08:54;41.78;;;2.47;;
43311;SDS011;30041;48.300;16.352;2023-08-31T05:11:19;28.05;;;2.70;;
43311;SDS011;30041;48.300;16.352;2023-08-31T05:13:45;24.95;;;2.95;;
43311;SDS011;30041;48.300;16.352;2023-08-31T05:16:10;39.55;;;2.85;;
43311;SDS011;30041;48.300;16.352;2023-08-31T05:18:37;14.02;;;1.92;;
43311;SDS011;30041;48.300;16.352;2023-08-31T05:21:03;12.10;;;1.67;;
43311;SDS011;30041;48.300;16.352;2023-08-31T05:23:29;5.97;;;1.38;;
43311;SDS011;30041;48.300;16.352;2023-08-31T05:25:55;8.30;;;1.77;;
43311;SDS011;30041;48.300;16.352;2023-08-31T05:28:21;7.00;;;1.42;;
43311;SDS011;30041;48.300;16.352;2023-08-31T05:30:50;7.70;;;1.35;;
43311;SDS011;30041;48.300;16.352;2023-08-31T05:33:16;6.18;;;1.20;;
43311;SDS011;30041;48.300;16.352;2023-08-31T05:35:42;3.53;;;1.10;;
43311;SDS011;30041;48.300;16.352;2023-08-31T05:38:08;3.20;;;1.17;;
43311;SDS011;30041;48.300;16.352;2023-08-31T05:40:33;2.25;;;1.20;;
43311;SDS011;30041;48.300;16.352;2023-08-31T05:42:59;2.08;;;1.20;;
43311;SDS011;30041;48.300;16.352;2023-08-31T05:45:25;3.33;;;1.27;;
43311;SDS011;30041;48.300;16.352;2023-08-31T05:47:50;3.53;;;1.52;;
43311;SDS011;30041;48.300;16.352;2023-08-31T05:50:15;4.95;;;1.30;;
43311;SDS011;30041;48.300;16.352;2023-08-31T05:52:41;4.40;;;1.25;;
43311;SDS011;30041;48.300;16.352;2023-08-31T05:55:08;2.53;;;1.10;;
43311;SDS011;30041;48.300;16.352;2023-08-31T05:57:34;4.40;;;1.40;;
43311;SDS011;30041;48.300;16.352;2023-08-31T05:59:59;3.47;;;1.30;;
43311;SDS011;30041;48.300;16.352;2023-08-31T06:02:25;1.90;;;1.02;;
43311;SDS011;30041;48.300;16.352;2023-08-31T06:04:50;1.55;;;1.20;;
43311;SDS011;30041;48.300;16.352;2023-08-31T06:07:16;2.00;;;1.02;;
43311;SDS011;30041;48.300;16.352;2023-08-31T06:09:41;1.92;;;1.27;;
43311;SDS011;30041;48.300;16.352;2023-08-31T06:12:07;3.63;;;1.10;;
43311;SDS011;30041;48.300;16.352;2023-08-31T06:14:33;5.50;;;1.35;;
43311;SDS011;30041;48.300;16.352;2023-08-31T06:16:58;5.22;;;1.50;;
43311;SDS011;30041;48.300;16.352;2023-08-31T06:19:24;3.20;;;1.30;;
43311;SDS011;30041;48.300;16.352;2023-08-31T06:21:49;1.58;;;0.88;;
43311;SDS011;30041;48.300;16.352;2023-08-31T06:24:15;2.05;;;1.05;;
43311;SDS011;30041;48.300;16.352;2023-08-31T06:26:41;3.53;;;1.00;;
43311;SDS011;30041;48.300;16.352;2023-08-31T06:29:06;2.47;;;1.10;;
43311;SDS011;30041;48.300;16.352;2023-08-31T06:31:32;1.77;;;1.13;;
43311;SDS011;30041;48.300;16.352;2023-08-31T06:33:57;2.00;;;1.08;;
43311;SDS011;30041;48.300;16.352;2023-08-31T06:36:23;3.55;;;1.23;;
43311;SDS011;30041;48.300;16.352;2023-08-31T06:38:49;1.80;;;1.00;;
43311;SDS011;30041;48.300;16.352;2023-08-31T06:41:14;2.55;;;1.30;;
43311;SDS011;30041;48.300;16.352;2023-08-31T06:43:40;3.33;;;1.48;;
43311;SDS011;30041;48.300;16.352;2023-08-31T06:46:05;2.30;;;0.95;;
43311;SDS011;30041;48.300;16.352;2023-08-31T06:48:31;1.80;;;1.15;;
43311;SDS011;30041;48.300;16.352;2023-08-31T06:50:56;2.65;;;1.30;;
43311;SDS011;30041;48.300;16.352;2023-08-31T06:53:22;1.95;;;0.90;;
43311;SDS011;30041;48.300;16.352;2023-08-31T06:55:47;3.40;;;1.30;;
43311;SDS011;30041;48.300;16.352;2023-08-31T06:58:13;3.78;;;1.10;;
43311;SDS011;30041;48.300;16.352;2023-08-31T07:00:38;3.90;;;0.80;;
43311;SDS011;30041;48.300;16.352;2023-08-31T07:03:04;1.75;;;0.88;;
43311;SDS011;30041;48.300;16.352;2023-08-31T07:05:32;3.10;;;0.90;;
43311;SDS011;30041;48.300;16.352;2023-08-31T07:07:58;2.67;;;1.20;;
43311;SDS011;30041;48.300;16.352;2023-08-31T07:10:24;2.10;;;1.10;;
43311;SDS011;30041;48.300;16.352;2023-08-31T07:12:49;1.83;;;1.08;;
43311;SDS011;30041;48.300;16.352;2023-08-31T07:15:15;2.40;;;1.00;;
43311;SDS011;30041;48.300;16.352;2023-08-31T07:17:41;2.40;;;0.90;;
43311;SDS011;30041;48.300;16.352;2023-08-31T07:20:06;2.33;;;1.13;;
43311;SDS011;30041;48.300;16.352;2023-08-31T07:22:33;2.55;;;1.10;;
43311;SDS011;30041;48.300;16.352;2023-08-31T07:24:59;2.08;;;1.10;;
43311;SDS011;30041;48.300;16.352;2023-08-31T07:27:24;1.95;;;0.90;;
43311;SDS011;30041;48.300;16.352;2023-08-31T07:29:50;1.95;;;0.90;;
43311;SDS011;30041;48.300;16.352;2023-08-31T07:32:16;3.15;;;1.27;;
43311;SDS011;30041;48.300;16.352;2023-08-31T07:34:41;1.60;;;1.02;;
43311;SDS011;30041;48.300;16.352;2023-08-31T07:37:07;2.60;;;1.20;;
43311;SDS011;30041;48.300;16.352;2023-08-31T07:39:32;6.13;;;1.60;;
43311;SDS011;30041;48.300;16.352;2023-08-31T07:41:58;2.75;;;1.40;;
43311;SDS011;30041;48.300;16.352;2023-08-31T07:44:23;2.33;;;1.23;;
43311;SDS011;30041;48.300;16.352;2023-08-31T07:46:49;2.70;;;1.30;;
43311;SDS011;30041;48.300;16.352;2023-08-31T07:49:14;2.30;;;1.10;;
43311;SDS011;30041;48.300;16.352;2023-08-31T07:51:40;2.00;;;1.20;;
43311;SDS011;30041;48.300;16.352;2023-08-31T07:54:05;1.67;;;1.08;;
43311;SDS011;30041;48.300;16.352;2023-08-31T07:56:31;1.83;;;0.93;;
43311;SDS011;30041;48.300;16.352;2023-08-31T07:58:56;2.35;;;1.30;;
43311;SDS011;30041;48.300;16.352;2023-08-31T08:01:22;2.38;;;1.02;;
43311;SDS011;30041;48.300;16.352;2023-08-31T08:03:47;2.80;;;1.42;;
43311;SDS011;30041;48.300;16.352;2023-08-31T08:06:13;2.30;;;1.10;;
43311;SDS011;30041;48.300;16.352;2023-08-31T08:08:38;2.92;;;1.50;;
43311;SDS011;30041;48.300;16.352;2023-08-31T08:11:04;1.58;;;1.08;;
43311;SDS011;30041;48.300;16.352;2023-08-31T08:13:30;3.63;;;1.00;;
43311;SDS011;30041;48.300;16.352;2023-08-31T08:15:55;2.33;;;1.10;;
43311;SDS011;30041;48.300;16.352;2023-08-31T08:18:21;2.40;;;1.20;;
43311;SDS011;30041;48.300;16.352;2023-08-31T08:20:52;2.03;;;1.10;;
43311;SDS011;30041;48.300;16.352;2023-08-31T08:23:18;2.50;;;1.35;;
43311;SDS011;30041;48.300;16.352;2023-08-31T08:25:43;3.72;;;1.50;;
43311;SDS011;30041;48.300;16.352;2023-08-31T08:28:09;2.17;;;1.17;;
43311;SDS011;30041;48.300;16.352;2023-08-31T08:30:34;1.90;;;1.15;;
43311;SDS011;30041;48.300;16.352;2023-08-31T08:32:59;1.98;;;1.20;;
43311;SDS011;30041;48.300;16.352;2023-08-31T08:35:25;3.05;;;1.25;;
43311;SDS011;30041;48.300;16.352;2023-08-31T08:37:51;3.65;;;1.40;;
43311;SDS011;30041;48.300;16.352;2023-08-31T08:40:17;2.38;;;1.42;;
43311;SDS011;30041;48.300;16.352;2023-08-31T08:42:43;2.47;;;1.30;;
43311;SDS011;30041;48.300;16.352;2023-08-31T08:45:15;2.80;;;1.35;;
43311;SDS011;30041;48.300;16.352;2023-08-31T08:47:42;2.55;;;1.50;;
43311;SDS011;30041;48.300;16.352;2023-08-31T08:50:08;2.08;;;1.10;;
43311;SDS011;30041;48.300;16.352;2023-08-31T08:52:35;3.38;;;1.50;;
43311;SDS011;30041;48.300;16.352;2023-08-31T08:55:01;3.75;;;1.70;;
43311;SDS011;30041;48.300;16.352;2023-08-31T08:57:27;3.15;;;1.30;;
43311;SDS011;30041;48.300;16.352;2023-08-31T08:59:52;4.03;;;1.30;;
43311;SDS011;30041;48.300;16.352;2023-08-31T09:02:18;2.42;;;1.40;;
43311;SDS011;30041;48.300;16.352;2023-08-31T09:04:43;2.88;;;1.70;;
43311;SDS011;30041;48.300;16.352;2023-08-31T09:07:09;2.85;;;1.33;;
43311;SDS011;30041;48.300;16.352;2023-08-31T09:09:53;2.22;;;1.50;;
43311;SDS011;30041;48.300;16.352;2023-08-31T09:12:23;2.47;;;1.30;;
43311;SDS011;30041;48.300;16.352;2023-08-31T09:15:03;3.03;;;1.55;;
43311;SDS011;30041;48.300;16.352;2023-08-31T09:17:39;2.78;;;1.33;;
43311;SDS011;30041;48.300;16.352;2023-08-31T09:20:06;2.17;;;1.50;;
43311;SDS011;30041;48.300;16.352;2023-08-31T09:22:32;3.25;;;1.20;;
43311;SDS011;30041;48.300;16.352;2023-08-31T09:24:58;2.05;;;1.38;;
43311;SDS011;30041;48.300;16.352;2023-08-31T09:27:23;3.95;;;1.42;;
43311;SDS011;30041;48.300;16.352;2023-08-31T09:29:49;2.33;;;1.38;;
43311;SDS011;30041;48.300;16.352;2023-08-31T09:32:18;1.73;;;1.20;;
43311;SDS011;30041;48.300;16.352;2023-08-31T09:34:43;2.15;;;1.30;;
43311;SDS011;30041;48.300;16.352;2023-08-31T09:37:10;1.88;;;1.15;;
43311;SDS011;30041;48.300;16.352;2023-08-31T09:39:36;1.70;;;1.30;;
43311;SDS011;30041;48.300;16.352;2023-08-31T09:42:02;1.80;;;1.40;;
43311;SDS011;30041;48.300;16.352;2023-08-31T09:44:27;3.25;;;1.45;;
43311;SDS011;30041;48.300;16.352;2023-08-31T09:46:53;3.03;;;1.20;;
43311;SDS011;30041;48.300;16.352;2023-08-31T09:49:18;1.83;;;1.33;;
43311;SDS011;30041;48.300;16.352;2023-08-31T09:51:46;2.70;;;1.20;;
43311;SDS011;30041;48.300;16.352;2023-08-31T09:54:15;3.50;;;1.40;;
43311;SDS011;30041;48.300;16.352;2023-08-31T09:56:42;2.70;;;1.50;;
43311;SDS011;30041;48.300;16.352;2023-08-31T09:59:09;2.88;;;1.40;;
43311;SDS011;30041;48.300;16.352;2023-08-31T10:01:35;2.38;;;1.40;;
43311;SDS011;30041;48.300;16.352;2023-08-31T10:04:01;2.25;;;1.40;;
43311;SDS011;30041;48.300;16.352;2023-08-31T10:06:27;2.95;;;1.50;;
43311;SDS011;30041;48.300;16.352;2023-08-31T10:08:54;2.47;;;1.38;;
43311;SDS011;30041;48.300;16.352;2023-08-31T10:11:20;3.38;;;1.27;;
43311;SDS011;30041;48.300;16.352;2023-08-31T10:13:46;1.55;;;1.17;;
43311;SDS011;30041;48.300;16.352;2023-08-31T10:16:13;2.90;;;1.40;;
43311;SDS011;30041;48.300;16.352;2023-08-31T10:18:40;2.42;;;1.30;;
43311;SDS011;30041;48.300;16.352;2023-08-31T10:21:05;3.00;;;1.23;;
43311;SDS011;30041;48.300;16.352;2023-08-31T10:23:31;3.38;;;1.23;;
43311;SDS011;30041;48.300;16.352;2023-08-31T10:28:23;2.65;;;1.10;;
43311;SDS011;30041;48.300;16.352;2023-08-31T10:33:30;3.17;;;1.50;;
43311;SDS011;30041;48.300;16.352;2023-08-31T10:36:02;2.53;;;1.30;;
43311;SDS011;30041;48.300;16.352;2023-08-31T10:38:28;2.20;;;1.27;;
43311;SDS011;30041;48.300;16.352;2023-08-31T10:46:27;2.00;;;1.27;;
43311;SDS011;30041;48.300;16.352;2023-08-31T10:49:02;2.75;;;1.33;;
43311;SDS011;30041;48.300;16.352;2023-08-31T10:51:40;3.38;;;1.08;;
43311;SDS011;30041;48.300;16.352;2023-08-31T10:54:09;4.22;;;1.17;;
43311;SDS011;30041;48.300;16.352;2023-08-31T10:57:01;4.22;;;1.40;;
43311;SDS011;30041;48.300;16.352;2023-08-31T10:59:43;4.25;;;1.20;;
43311;SDS011;30041;48.300;16.352;2023-08-31T11:05:12;4.28;;;1.33;;
43311;SDS011;30041;48.300;16.352;2023-08-31T11:07:39;2.58;;;1.55;;
43311;SDS011;30041;48.300;16.352;2023-08-31T11:10:06;3.85;;;1.10;;
43311;SDS011;30041;48.300;16.352;2023-08-31T11:12:35;1.40;;;1.10;;
43311;SDS011;30041;48.300;16.352;2023-08-31T11:15:01;3.22;;;1.30;;
43311;SDS011;30041;48.300;16.352;2023-08-31T11:17:26;2.72;;;1.17;;
43311;SDS011;30041;48.300;16.352;2023-08-31T11:19:52;2.00;;;1.30;;
43311;SDS011;30041;48.300;16.352;2023-08-31T11:22:18;2.97;;;1.20;;
43311;SDS011;30041;48.300;16.352;2023-08-31T11:24:43;3.10;;;1.27;;
43311;SDS011;30041;48.300;16.352;2023-08-31T11:27:09;3.65;;;1.48;;
43311;SDS011;30041;48.300;16.352;2023-08-31T11:29:42;2.80;;;1.20;;
43311;SDS011;30041;48.300;16.352;2023-08-31T11:32:08;2.35;;;1.27;;
43311;SDS011;30041;48.300;16.352;2023-08-31T11:34:33;6.85;;;1.52;;
43311;SDS011;30041;48.300;16.352;2023-08-31T11:36:59;3.63;;;1.30;;
43311;SDS011;30041;48.300;16.352;2023-08-31T11:39:24;4.45;;;1.38;;
43311;SDS011;30041;48.300;16.352;2023-08-31T11:41:50;3.80;;;1.30;;
43311;SDS011;30041;48.300;16.352;2023-08-31T11:44:16;4.35;;;1.48;;
43311;SDS011;30041;48.300;16.352;2023-08-31T11:46:43;4.07;;;1.50;;
43311;SDS011;30041;48.300;16.352;2023-08-31T11:49:11;4.78;;;1.20;;
43311;SDS011;30041;48.300;16.352;2023-08-31T11:51:37;5.03;;;1.50;;
43311;SDS011;30041;48.300;16.352;2023-08-31T11:54:05;4.20;;;1.27;;
43311;SDS011;30041;48.300;16.352;2023-08-31T11:56:41;6.82;;;1.40;;
43311;SDS011;30041;48.300;16.352;2023-08-31T11:59:10;3.83;;;1.38;;
43311;SDS011;30041;48.300;16.352;2023-08-31T12:01:40;7.65;;;1.35;;
43311;SDS011;30041;48.300;16.352;2023-08-31T12:04:15;3.58;;;1.50;;
43311;SDS011;30041;48.300;16.352;2023-08-31T12:06:42;4.07;;;1.55;;
43311;SDS011;30041;48.300;16.352;2023-08-31T12:09:11;3.20;;;1.08;;
43311;SDS011;30041;48.300;16.352;2023-08-31T12:11:37;1.85;;;1.10;;
43311;SDS011;30041;48.300;16.352;2023-08-31T12:14:03;4.22;;;1.58;;
43311;SDS011;30041;48.300;16.352;2023-08-31T12:16:42;4.85;;;1.40;;
43311;SDS011;30041;48.300;16.352;2023-08-31T12:19:08;4.32;;;1.17;;
43311;SDS011;30041;48.300;16.352;2023-08-31T12:21:35;3.25;;;1.45;;
43311;SDS011;30041;48.300;16.352;2023-08-31T12:24:00;2.78;;;1.30;;
43311;SDS011;30041;48.300;16.352;2023-08-31T12:26:26;4.88;;;1.52;;
43311;SDS011;30041;48.300;16.352;2023-08-31T12:28:52;4.18;;;1.30;;
43311;SDS011;30041;48.300;16.352;2023-08-31T12:31:17;2.95;;;1.50;;
43311;SDS011;30041;48.300;16.352;2023-08-31T12:33:43;3.53;;;1.40;;
43311;SDS011;30041;48.300;16.352;2023-08-31T12:36:08;2.42;;;1.10;;
43311;SDS011;30041;48.300;16.352;2023-08-31T12:38:34;4.00;;;1.30;;
43311;SDS011;30041;48.300;16.352;2023-08-31T12:40:59;2.25;;;1.30;;
43311;SDS011;30041;48.300;16.352;2023-08-31T12:43:25;4.68;;;1.60;;
43311;SDS011;30041;48.300;16.352;2023-08-31T12:45:50;3.33;;;1.25;;
43311;SDS011;30041;48.300;16.352;2023-08-31T12:48:16;2.78;;;1.27;;
43311;SDS011;30041;48.300;16.352;2023-08-31T12:50:41;4.20;;;1.20;;
43311;SDS011;30041;48.300;16.352;2023-08-31T12:53:07;2.67;;;1.52;;
43311;SDS011;30041;48.300;16.352;2023-08-31T12:55:32;2.15;;;1.10;;
43311;SDS011;30041;48.300;16.352;2023-08-31T12:57:58;3.55;;;1.20;;
43311;SDS011;30041;48.300;16.352;2023-08-31T13:00:23;3.42;;;1.10;;
43311;SDS011;30041;48.300;16.352;2023-08-31T13:02:50;2.75;;;1.40;;
43311;SDS011;30041;48.300;16.352;2023-08-31T13:05:15;2.13;;;1.10;;
43311;SDS011;30041;48.300;16.352;2023-08-31T13:07:41;2.33;;;1.10;;
43311;SDS011;30041;48.300;16.352;2023-08-31T13:10:07;2.28;;;1.45;;
43311;SDS011;30041;48.300;16.352;2023-08-31T13:12:33;2.30;;;1.27;;
43311;SDS011;30041;48.300;16.352;2023-08-31T13:14:59;3.15;;;1.17;;
43311;SDS011;30041;48.300;16.352;2023-08-31T13:17:25;1.73;;;1.20;;
43311;SDS011;30041;48.300;16.352;2023-08-31T13:19:51;2.72;;;1.40;;
43311;SDS011;30041;48.300;16.352;2023-08-31T13:22:17;3.38;;;1.45;;
43311;SDS011;30041;48.300;16.352;2023-08-31T13:24:43;1.90;;;1.05;;
43311;SDS011;30041;48.300;16.352;2023-08-31T13:27:08;2.78;;;1.17;;
43311;SDS011;30041;48.300;16.352;2023-08-31T13:29:34;3.75;;;1.42;;
43311;SDS011;30041;48.300;16.352;2023-08-31T13:31:59;5.28;;;1.27;;
43311;SDS011;30041;48.300;16.352;2023-08-31T13:34:25;2.72;;;1.40;;
43311;SDS011;30041;48.300;16.352;2023-08-31T13:36:50;5.28;;;1.70;;
43311;SDS011;30041;48.300;16.352;2023-08-31T13:39:16;3.47;;;1.40;;
43311;SDS011;30041;48.300;16.352;2023-08-31T13:41:41;3.22;;;1.50;;
43311;SDS011;30041;48.300;16.352;2023-08-31T13:44:07;3.47;;;1.50;;
43311;SDS011;30041;48.300;16.352;2023-08-31T13:46:32;2.63;;;1.23;;
43311;SDS011;30041;48.300;16.352;2023-08-31T13:48:58;3.60;;;1.30;;
43311;SDS011;30041;48.300;16.352;2023-08-31T13:51:23;4.53;;;1.38;;
43311;SDS011;30041;48.300;16.352;2023-08-31T13:53:49;6.15;;;1.40;;
43311;SDS011;30041;48.300;16.352;2023-08-31T13:56:14;2.78;;;1.48;;
43311;SDS011;30041;48.300;16.352;2023-08-31T13:58:40;4.18;;;1.50;;
43311;SDS011;30041;48.300;16.352;2023-08-31T14:01:05;2.90;;;1.40;;
43311;SDS011;30041;48.300;16.352;2023-08-31T14:03:31;3.78;;;1.50;;
43311;SDS011;30041;48.300;16.352;2023-08-31T14:05:56;3.22;;;1.30;;
43311;SDS011;30041;48.300;16.352;2023-08-31T14:08:21;3.55;;;1.50;;
43311;SDS011;30041;48.300;16.352;2023-08-31T14:10:47;6.05;;;1.80;;
43311;SDS011;30041;48.300;16.352;2023-08-31T14:13:12;5.22;;;1.60;;
43311;SDS011;30041;48.300;16.352;2023-08-31T14:15:38;4.15;;;1.58;;
43311;SDS011;30041;48.300;16.352;2023-08-31T14:18:09;4.88;;;1.70;;
43311;SDS011;30041;48.300;16.352;2023-08-31T14:20:34;3.25;;;1.58;;
43311;SDS011;30041;48.300;16.352;2023-08-31T14:23:00;3.70;;;1.63;;
43311;SDS011;30041;48.300;16.352;2023-08-31T14:25:25;4.20;;;1.50;;
43311;SDS011;30041;48.300;16.352;2023-08-31T14:27:51;3.17;;;1.27;;
43311;SDS011;30041;48.300;16.352;2023-08-31T14:30:16;4.88;;;1.42;;
43311;SDS011;30041;48.300;16.352;2023-08-31T14:32:42;3.97;;;1.52;;
43311;SDS011;30041;48.300;16.352;2023-08-31T14:35:07;3.22;;;1.50;;
43311;SDS011;30041;48.300;16.352;2023-08-31T14:37:33;2.88;;;1.60;;
43311;SDS011;30041;48.300;16.352;2023-08-31T14:39:58;3.67;;;1.30;;
43311;SDS011;30041;48.300;16.352;2023-08-31T14:42:24;2.95;;;1.45;;
43311;SDS011;30041;48.300;16.352;2023-08-31T14:44:49;3.13;;;1.35;;
43311;SDS011;30041;48.300;16.352;2023-08-31T14:47:15;3.00;;;1.60;;
43311;SDS011;30041;48.300;16.352;2023-08-31T14:49:40;3.45;;;1.30;;
43311;SDS011;30041;48.300;16.352;2023-08-31T14:52:06;3.60;;;1.60;;